Time;durP1;ratioP1;P1;durP2;ratioP2;P2;SDS_P1;SDS_P2;PMS_P1;PMS_P2;Temp;Humidity;BMP_temperature;BMP_pressure;BME280_temperature;BME280_humidity;BME280_pressure;Samples;Min_cycle;Max_cycle;Signal;HPM_P1;HPM_P2
2022/02/04 00:25:38;;;;;;;12.95;8.88;;;;;;;8.31;76.09;101211.78;5022712;28;20136;-66
2022/02/04 00:28:21;;;;;;;14.30;8.27;;;;;;;8.27;76.06;101208.31;5047814;28;20036;-64
2022/02/04 00:30:58;;;;;;;11.98;8.07;;;;;;;8.30;75.73;101210.03;5048392;28;20033;-65
2022/02/04 00:33:25;;;;;;;12.52;8.63;;;;;;;8.26;76.01;101200.47;5036036;28;20029;-65
2022/02/04 00:35:57;;;;;;;16.05;7.68;;;;;;;8.26;75.90;101211.84;5028923;28;20029;-65
2022/02/04 00:38:30;;;;;;;14.18;7.25;;;;;;;8.22;76.19;101204.94;5027411;28;20105;-65
2022/02/04 00:41:04;;;;;;;12.25;8.07;;;;;;;8.11;76.55;101204.25;5028900;28;20021;-65
2022/02/04 00:43:31;;;;;;;11.48;8.35;;;;;;;8.21;76.37;101197.94;5028001;28;20022;-64
2022/02/04 00:56:20;;;;;;;12.35;8.25;;;;;;;8.19;76.55;101191.88;5018636;28;20029;-64
2022/02/04 01:26:04;;;;;;;12.07;6.35;;;;;;;8.10;77.18;101169.28;5047544;28;20051;-66
2022/02/04 01:28:33;;;;;;;11.00;6.57;;;;;;;8.13;76.88;101174.44;5039684;28;20021;-64
2022/02/04 01:30:59;;;;;;;14.38;5.78;;;;;;;8.18;76.66;101171.75;5019249;28;20419;-66
2022/02/04 01:33:25;;;;;;;11.18;5.85;;;;;;;8.17;76.75;101175.25;5022770;28;20079;-65
2022/02/04 01:35:50;;;;;;;9.35;5.50;;;;;;;8.20;76.40;101167.34;5027684;28;20452;-66
2022/02/04 01:38:16;;;;;;;7.30;5.22;;;;;;;8.24;76.57;101171.63;5008048;28;20046;-66
2022/02/04 01:40:42;;;;;;;8.88;5.15;;;;;;;8.26;76.48;101167.22;5008392;28;20480;-66
2022/02/04 01:43:07;;;;;;;14.50;4.65;;;;;;;8.27;76.55;101162.81;5007428;28;20305;-66
2022/02/04 01:45:32;;;;;;;12.60;5.18;;;;;;;8.23;76.62;101169.91;5045860;28;20390;-67
2022/02/04 01:47:58;;;;;;;9.70;4.72;;;;;;;8.26;76.47;101151.47;5027667;28;20021;-66
2022/02/04 01:50:26;;;;;;;9.23;4.50;;;;;;;8.25;76.55;101162.84;5046082;28;20045;-65
2022/02/04 01:52:51;;;;;;;13.43;5.22;;;;;;;8.31;76.26;101149.59;5029078;28;20079;-66
2022/02/04 01:55:17;;;;;;;15.20;5.43;;;;;;;8.33;75.83;101163.59;5024673;28;20484;-65
2022/02/04 01:57:43;;;;;;;11.73;4.25;;;;;;;8.28;76.38;101151.44;5023015;28;20045;-64
2022/02/04 02:00:09;;;;;;;13.20;5.53;;;;;;;8.26;76.37;101159.34;5030221;28;20032;-64
2022/02/04 02:02:35;;;;;;;12.18;4.57;;;;;;;8.25;76.41;101154.97;5044700;28;20694;-65
2022/02/04 02:05:00;;;;;;;10.70;4.50;;;;;;;8.35;76.32;101142.53;5044980;28;20033;-65
2022/02/04 02:07:27;;;;;;;8.20;3.60;;;;;;;8.33;76.49;101137.31;5046282;28;20041;-64
2022/02/04 02:12:23;;;;;;;17.40;4.65;;;;;;;8.33;76.51;101144.31;5046079;28;20447;-65
2022/02/04 02:14:58;;;;;;;11.43;4.03;;;;;;;8.31;76.76;101140.88;5028367;28;20105;-65
2022/02/04 02:39:51;;;;;;;9.02;3.83;;;;;;;8.40;75.96;101114.41;5046325;28;20048;-65
2022/02/04 03:00:28;;;;;;;14.60;4.07;;;;;;;8.42;75.18;101101.25;5046464;28;20075;-67
2022/02/04 03:02:58;;;;;;;10.68;3.65;;;;;;;8.52;74.82;101092.28;5043856;28;20040;-65
2022/02/04 03:05:24;;;;;;;13.52;4.53;;;;;;;8.36;75.31;101091.75;5035157;28;20079;-65
2022/02/04 03:07:49;;;;;;;8.32;3.50;;;;;;;8.42;75.21;101078.50;5044782;28;20435;-65
2022/02/04 03:10:14;;;;;;;11.63;4.15;;;;;;;8.46;74.73;101087.19;5045099;28;20056;-64
2022/02/04 03:12:42;;;;;;;9.02;3.55;;;;;;;8.42;74.77;101083.75;5021992;28;20029;-66
2022/02/04 03:15:08;;;;;;;8.10;4.43;;;;;;;8.43;74.64;101079.38;5027209;28;20148;-67
2022/02/04 03:17:34;;;;;;;11.48;3.35;;;;;;;8.46;74.44;101082.78;5025699;28;20038;-66
2022/02/04 03:20:04;;;;;;;8.30;4.10;;;;;;;8.40;74.87;101077.66;5025290;28;20380;-64
2022/02/04 03:22:29;;;;;;;12.30;4.93;;;;;;;8.43;74.82;101080.22;5026286;28;20495;-66
2022/02/04 03:24:59;;;;;;;10.15;3.22;;;;;;;8.47;74.31;101075.78;5025940;28;20032;-65
2022/02/04 03:27:32;;;;;;;6.80;3.60;;;;;;;8.52;74.19;101070.44;5025814;28;20156;-66
2022/02/04 03:30:06;;;;;;;13.07;3.10;;;;;;;8.43;74.42;101071.50;5025580;28;20104;-64
2022/02/04 03:32:33;;;;;;;13.95;3.05;;;;;;;8.47;74.49;101052.16;5025484;28;20040;-66
2022/02/04 03:34:58;;;;;;;10.60;3.55;;;;;;;8.47;74.58;101068.78;5026796;28;20036;-65
2022/02/04 03:37:24;;;;;;;6.80;3.03;;;;;;;8.52;74.35;101062.56;5044917;28;20063;-64
2022/02/04 03:39:49;;;;;;;6.95;3.85;;;;;;;8.51;74.12;101064.31;5044549;28;20029;-65
2022/02/04 03:42:14;;;;;;;9.35;3.58;;;;;;;8.56;74.12;101070.38;5044422;28;20039;-64
2022/02/04 03:44:40;;;;;;;7.35;3.38;;;;;;;8.43;74.52;101066.25;5045302;28;20024;-63
2022/02/04 03:47:05;;;;;;;6.95;3.55;;;;;;;8.53;74.26;101061.66;5044083;28;20161;-66
2022/02/04 03:49:30;;;;;;;12.13;3.78;;;;;;;8.43;74.66;101071.50;5045099;28;20021;-66
2022/02/04 03:51:56;;;;;;;8.30;3.42;;;;;;;8.50;74.38;101061.72;5044196;28;20021;-64
2022/02/04 03:54:21;;;;;;;6.35;3.40;;;;;;;8.51;74.61;101061.69;5038140;28;20046;-65
2022/02/04 03:56:46;;;;;;;8.13;3.65;;;;;;;8.44;74.81;101058.34;5006491;28;20022;-64
2022/02/04 03:59:12;;;;;;;9.82;3.80;;;;;;;8.41;74.99;101057.53;5021318;28;20172;-65
2022/02/04 04:01:37;;;;;;;11.13;3.05;;;;;;;8.41;75.19;101044.41;5007279;28;20030;-65
2022/02/04 04:04:03;;;;;;;9.52;3.35;;;;;;;8.52;74.87;101055.53;5023916;28;20060;-66
2022/02/04 04:06:28;;;;;;;8.77;3.13;;;;;;;8.42;75.05;101054.00;5025356;28;20507;-64
2022/02/04 04:08:55;;;;;;;8.30;2.92;;;;;;;8.44;75.37;101045.22;5020061;28;20547;-65
2022/02/04 04:11:20;;;;;;;11.00;2.85;;;;;;;8.51;74.91;101052.94;5025643;28;20365;-65
2022/02/04 04:13:46;;;;;;;7.20;2.85;;;;;;;8.52;75.03;101042.38;5024431;28;20033;-65
2022/02/04 04:16:13;;;;;;;15.60;2.63;;;;;;;8.46;75.21;101030.25;5024812;28;20028;-65
2022/02/04 04:18:38;;;;;;;8.90;2.92;;;;;;;8.42;75.13;101040.88;5022939;28;20037;-64
2022/02/04 04:21:04;;;;;;;5.85;2.42;;;;;;;8.50;75.00;101036.31;5025258;28;20040;-65
2022/02/04 04:23:29;;;;;;;4.60;2.22;;;;;;;8.51;74.76;101035.41;5026508;28;20520;-64
2022/02/04 04:25:54;;;;;;;3.55;2.20;;;;;;;8.51;74.99;101042.41;5044411;28;20051;-64
2022/02/04 04:28:19;;;;;;;10.15;2.40;;;;;;;8.43;74.76;101046.09;5044041;28;20076;-65
2022/02/04 04:30:45;;;;;;;10.70;2.38;;;;;;;8.49;74.88;101044.22;5044786;28;20060;-63
2022/02/04 04:33:11;;;;;;;7.00;2.20;;;;;;;8.46;74.67;101042.56;5044031;28;20124;-66
2022/02/04 04:35:37;;;;;;;10.27;2.50;;;;;;;8.47;74.63;101041.66;5044272;28;20028;-65
2022/02/04 04:38:11;;;;;;;10.70;2.03;;;;;;;8.44;74.55;101047.84;5044194;28;20044;-65
2022/02/04 04:43:27;;;;;;;4.97;1.90;;;;;;;8.42;74.75;101033.88;5022270;28;20496;-65
2022/02/04 05:29:18;;;;;;;6.07;2.10;;;;;;;8.43;74.68;100979.59;5015122;28;20038;-65
2022/02/04 05:31:44;;;;;;;6.20;2.30;;;;;;;8.43;74.36;100977.81;5025020;28;20111;-64
2022/02/04 05:34:11;;;;;;;8.68;2.00;;;;;;;8.33;74.82;100969.28;5027984;28;20021;-64
2022/02/04 05:36:42;;;;;;;3.45;2.17;;;;;;;8.38;74.57;100965.69;5027648;28;20025;-66
2022/02/04 05:39:07;;;;;;;5.15;2.30;;;;;;;8.39;74.64;100959.53;5030402;28;20061;-65
2022/02/04 05:41:37;;;;;;;2.95;1.95;;;;;;;8.41;74.56;100953.38;5026454;28;20103;-64
2022/02/04 05:44:08;;;;;;;4.82;2.08;;;;;;;8.38;74.54;100952.56;5025933;28;20020;-65
2022/02/04 05:46:39;;;;;;;7.22;2.40;;;;;;;8.33;74.66;100948.28;5022925;28;20064;-65
2022/02/04 05:49:05;;;;;;;8.60;2.08;;;;;;;8.39;74.20;100934.16;5006949;28;20029;-65
2022/02/04 05:54:20;;;;;;;7.25;2.47;;;;;;;8.40;74.15;100927.13;5027644;28;20552;-66
2022/02/04 05:59:57;;;;;;;4.07;2.05;;;;;;;8.37;74.17;100935.09;5015098;28;20037;-64
2022/02/04 06:05:15;;;;;;;5.30;1.83;;;;;;;8.41;73.92;100934.09;5020158;28;20038;-65
2022/02/04 06:10:55;;;;;;;5.70;2.35;;;;;;;8.20;74.89;100941.59;5014481;28;20459;-63
2022/02/04 06:23:35;;;;;;;8.45;3.10;;;;;;;8.30;75.47;100934.34;5045896;28;20549;-63
2022/02/04 06:26:00;;;;;;;4.95;2.83;;;;;;;8.17;76.08;100921.53;5046279;28;20111;-61
2022/02/04 06:28:25;;;;;;;9.05;3.70;;;;;;;8.12;76.26;100925.16;5039612;28;20029;-61
2022/02/04 06:30:51;;;;;;;7.78;3.70;;;;;;;8.17;76.42;100934.66;4995908;28;20052;-61
2022/02/04 06:33:16;;;;;;;10.68;4.00;;;;;;;8.11;76.87;100933.91;5025149;28;20468;-63
2022/02/04 06:35:42;;;;;;;7.65;3.78;;;;;;;8.21;76.67;100930.16;5026074;28;20079;-61
2022/02/04 06:38:07;;;;;;;4.57;3.80;;;;;;;8.18;76.96;100928.50;5026028;28;20494;-62
2022/02/04 06:40:32;;;;;;;5.65;3.55;;;;;;;8.22;76.89;100937.16;5015169;28;20029;-62
2022/02/04 06:42:58;;;;;;;9.55;3.80;;;;;;;8.23;76.84;100931.00;5030266;28;20454;-62
2022/02/04 06:45:23;;;;;;;6.03;4.57;;;;;;;8.13;77.35;100919.84;5045951;28;20087;-63
2022/02/04 06:47:48;;;;;;;9.27;5.47;;;;;;;8.08;77.75;100912.09;5044008;28;20028;-62
2022/02/04 06:50:14;;;;;;;6.72;5.32;;;;;;;8.10;77.67;100927.81;5008099;28;20365;-62
2022/02/04 06:52:42;;;;;;;9.82;5.28;;;;;;;8.15;77.75;100906.69;5018108;28;20432;-65
2022/02/04 06:55:07;;;;;;;9.32;5.95;;;;;;;8.11;77.95;100897.16;5015860;28;20018;-61
2022/02/04 06:57:33;;;;;;;12.75;6.10;;;;;;;8.11;77.96;100905.91;5008366;28;20030;-63
2022/02/04 06:59:58;;;;;;;11.05;6.25;;;;;;;7.95;78.35;100903.59;5005050;28;20500;-62
2022/02/04 07:02:26;;;;;;;11.07;6.70;;;;;;;7.96;78.47;100901.84;5005239;28;20025;-62
2022/02/04 07:04:52;;;;;;;10.50;6.90;;;;;;;7.99;78.45;100906.16;5039771;28;20037;-61
2022/02/04 07:07:18;;;;;;;10.30;6.50;;;;;;;7.98;78.44;100910.56;5044720;28;20114;-62
2022/02/04 07:09:50;;;;;;;8.93;6.57;;;;;;;7.97;78.79;100920.19;5045603;28;20020;-63
2022/02/04 07:14:52;;;;;;;12.45;8.00;;;;;;;7.93;79.12;100910.66;5015828;28;20041;-60
2022/02/04 07:17:28;;;;;;;9.07;6.25;;;;;;;8.09;78.49;100920.81;5015341;28;20029;-61
2022/02/04 07:19:55;;;;;;;9.20;6.90;;;;;;;8.06;78.59;100916.50;5012066;28;20109;-61
2022/02/04 07:22:31;;;;;;;9.13;6.35;;;;;;;8.11;78.56;100891.91;5024210;28;20443;-61
2022/02/04 07:24:59;;;;;;;9.70;6.45;;;;;;;8.17;78.31;100897.03;5010671;28;20021;-64
2022/02/04 07:27:26;;;;;;;8.90;6.30;;;;;;;8.23;78.36;100910.00;5006631;28;20026;-60
2022/02/04 07:29:53;;;;;;;10.35;7.13;;;;;;;8.25;77.98;100915.22;5025176;28;20013;-60
2022/02/04 07:42:39;;;;;;;9.13;6.15;;;;;;;8.36;77.87;100899.25;5023888;28;20045;-57
2022/02/04 07:45:05;;;;;;;10.68;6.93;;;;;;;8.29;78.12;100891.50;5019038;28;20435;-55
2022/02/04 07:47:31;;;;;;;11.98;6.72;;;;;;;8.25;78.20;100902.94;5020847;28;20391;-60
2022/02/04 07:49:56;;;;;;;8.43;7.20;;;;;;;8.36;77.65;100909.75;5007088;28;20556;-62
2022/02/04 07:52:22;;;;;;;9.02;8.13;;;;;;;8.39;77.90;100899.13;5007507;28;20401;-60
2022/02/04 07:54:47;;;;;;;10.05;6.80;;;;;;;8.42;77.68;100893.81;5013508;28;20507;-62
2022/02/04 07:57:12;;;;;;;8.98;6.47;;;;;;;8.43;77.50;100880.66;5020514;28;20040;-63
2022/02/04 07:59:38;;;;;;;12.35;6.25;;;;;;;8.36;77.65;100881.69;5014994;28;20353;-61
2022/02/04 08:02:04;;;;;;;8.50;6.88;;;;;;;8.36;77.50;100881.69;5023885;28;20126;-61
2022/02/04 08:04:32;;;;;;;11.55;5.97;;;;;;;8.42;77.58;100864.94;5015302;28;20050;-61
2022/02/04 08:07:03;;;;;;;8.30;5.80;;;;;;;8.40;77.29;100866.75;5003032;28;20028;-63
2022/02/04 08:12:30;;;;;;;6.30;5.68;;;;;;;8.47;76.58;100869.19;5014792;28;20100;-65
2022/02/04 08:47:11;;;;;;;6.43;4.03;;;;;;;8.70;75.55;100833.59;5027172;28;20026;-62
2022/02/04 08:55:02;;;;;;;5.07;4.05;;;;;;;8.75;75.84;100804.59;5011831;28;20053;-61
2022/02/04 09:00:29;;;;;;;6.75;4.28;;;;;;;8.85;75.68;100794.69;5002457;28;20511;-59
2022/02/04 09:02:59;;;;;;;5.40;4.88;;;;;;;8.84;75.49;100803.47;5005299;28;20061;-62
2022/02/04 09:05:34;;;;;;;7.97;4.82;;;;;;;8.91;75.20;100789.25;5006538;28;20014;-61
2022/02/04 09:10:46;;;;;;;7.00;4.63;;;;;;;8.81;75.80;100778.16;5006467;28;20488;-61
2022/02/04 09:18:51;;;;;;;7.60;5.13;;;;;;;8.82;75.48;100773.78;4945590;28;20603;-61
2022/02/04 09:21:48;;;;;;;8.68;5.25;;;;;;;8.88;75.75;100778.00;4946122;28;20027;-61
2022/02/04 09:24:02;;;;;;;7.70;5.22;;;;;;;8.92;75.29;100766.50;4979752;28;20037;-62
2022/02/04 09:26:27;;;;;;;7.10;5.28;;;;;;;8.99;74.97;100783.81;5007615;28;20029;-62
2022/02/04 09:28:53;;;;;;;5.90;5.07;;;;;;;9.01;74.64;100774.13;5007531;28;20124;-61
2022/02/04 09:31:18;;;;;;;5.35;4.85;;;;;;;9.07;74.25;100767.81;5008875;28;20542;-62
2022/02/04 09:33:43;;;;;;;7.30;5.07;;;;;;;9.07;74.00;100779.22;5007035;28;20472;-61
2022/02/04 09:36:09;;;;;;;8.38;4.30;;;;;;;9.06;73.91;100764.31;5023972;28;20543;-61
2022/02/04 09:38:34;;;;;;;3.75;3.45;;;;;;;9.19;73.58;100763.97;5009050;28;20096;-61
2022/02/04 09:40:59;;;;;;;7.55;4.22;;;;;;;9.30;72.93;100755.78;5018684;28;20109;-60
2022/02/04 09:43:25;;;;;;;7.53;3.75;;;;;;;9.44;72.59;100756.22;5007276;28;20021;-61
2022/02/04 09:45:51;;;;;;;6.93;4.40;;;;;;;9.42;72.64;100765.06;5017506;28;20493;-61
2022/02/04 09:48:17;;;;;;;4.32;3.45;;;;;;;9.45;72.55;100754.44;5006609;28;20100;-61
2022/02/04 09:50:47;;;;;;;5.05;4.20;;;;;;;9.30;73.33;100761.88;5014652;28;20075;-60
2022/02/04 10:17:40;;;;;;;4.90;3.20;;;;;;;9.60;72.67;100727.66;5006428;28;20179;-61
2022/02/04 10:20:06;;;;;;;4.78;2.80;;;;;;;9.54;72.11;100733.09;4988059;28;20033;-60
2022/02/04 10:22:33;;;;;;;3.72;3.42;;;;;;;9.37;73.06;100728.38;4996028;28;20040;-62
2022/02/04 10:25:00;;;;;;;3.38;3.10;;;;;;;9.37;73.20;100759.94;5000689;28;20025;-60
2022/02/04 10:27:30;;;;;;;5.72;3.40;;;;;;;9.27;73.30;100721.69;5009776;28;20152;-61
2022/02/04 10:29:56;;;;;;;;;;;;;;;9.10;73.70;100723.88;5020817;28;20483;-61
2022/02/04 10:32:46;;;;;;;6.03;3.80;;;;;;;9.25;73.34;100708.59;5012481;28;19917;-58
2022/02/04 10:35:15;;;;;;;5.22;3.00;;;;;;;9.22;73.21;100699.00;5008945;28;20041;-64
2022/02/04 10:37:55;;;;;;;3.53;3.20;;;;;;;9.27;72.89;100708.53;5022094;28;20547;-67
2022/02/04 11:03:42;;;;;;;4.32;2.88;;;;;;;9.54;70.49;100656.81;5018729;28;20025;-62
2022/02/04 11:06:32;;;;;;;5.70;2.95;;;;;;;9.38;71.35;100656.47;5015701;28;20080;-64
2022/02/04 11:31:03;;;;;;;3.58;2.72;;;;;;;9.19;71.01;100630.78;5016098;28;20634;-61
2022/02/04 11:36:10;;;;;;;6.00;3.13;;;;;;;9.05;70.89;100594.38;5018967;28;20042;-60
2022/02/04 11:55:09;;;;;;;5.78;3.30;;;;;;;9.19;71.75;100566.81;5019853;28;20033;-62
2022/02/04 11:57:34;;;;;;;4.97;3.20;;;;;;;9.09;71.63;100567.09;5032663;28;20033;-67
2022/02/04 12:00:18;;;;;;;4.70;2.85;;;;;;;9.19;71.18;100561.53;5030668;28;20025;-64
2022/02/04 12:02:49;;;;;;;5.75;3.13;;;;;;;9.16;70.83;100573.03;5030060;28;20026;-66
2022/02/04 12:05:18;;;;;;;7.00;2.78;;;;;;;9.14;70.66;100545.91;5029475;28;20434;-63
2022/02/04 12:08:08;;;;;;;10.02;3.42;;;;;;;9.17;71.23;100537.06;5023373;28;20057;-65
2022/02/04 12:10:44;;;;;;;5.10;2.95;;;;;;;9.11;71.92;100522.38;5026220;28;20051;-64
2022/02/04 12:13:10;;;;;;;5.68;2.88;;;;;;;9.17;71.86;100526.56;5029586;28;20026;-65
2022/02/04 12:15:41;;;;;;;3.58;2.78;;;;;;;9.20;71.97;100526.44;5011159;28;20028;-65
2022/02/04 12:18:09;;;;;;;8.50;2.95;;;;;;;9.22;71.87;100524.66;5029398;28;20064;-65
2022/02/04 12:20:47;;;;;;;7.43;2.70;;;;;;;9.07;72.55;100523.38;5028891;28;20032;-65
2022/02/04 12:23:41;;;;;;;4.90;3.17;;;;;;;8.93;73.90;100529.06;5029532;28;20562;-66
2022/02/04 12:26:09;;;;;;;3.53;2.83;;;;;;;8.80;74.46;100502.34;5034441;28;20060;-64
2022/02/04 12:29:08;;;;;;;10.57;5.00;;;;;;;8.80;74.69;100513.72;5047938;28;20048;-65
2022/02/04 12:31:35;;;;;;;6.22;3.63;;;;;;;8.63;74.55;100505.47;5046726;28;20029;-65
2022/02/04 12:34:11;;;;;;;9.00;3.08;;;;;;;8.52;75.79;100500.56;5028871;28;20022;-65
2022/02/04 12:36:52;;;;;;;5.53;2.80;;;;;;;8.37;76.01;100510.59;5028881;28;20116;-64
2022/02/04 12:39:19;;;;;;;9.80;2.78;;;;;;;8.34;76.13;100503.66;5029141;28;20044;-65
2022/02/04 12:41:59;;;;;;;7.68;2.67;;;;;;;8.28;75.83;100479.38;5026431;28;20036;-64
2022/02/04 12:44:45;;;;;;;17.23;3.40;;;;;;;8.11;76.82;100466.75;5034075;28;20037;-64
2022/02/04 12:47:13;;;;;;;9.57;3.08;;;;;;;8.12;77.16;100458.00;5040695;28;20396;-64
2022/02/04 12:49:53;;;;;;;11.70;3.15;;;;;;;7.99;77.76;100453.09;5047445;28;20025;-68
2022/02/04 12:54:58;;;;;;;4.38;2.70;;;;;;;7.86;78.79;100456.97;5047505;28;20044;-65
2022/02/04 12:57:37;;;;;;;5.72;3.15;;;;;;;7.90;78.80;100448.13;5047187;28;20475;-68
2022/02/04 13:03:01;;;;;;;5.38;3.15;;;;;;;7.92;79.62;100454.19;5033043;28;20045;-65
2022/02/04 13:10:40;;;;;;;4.45;2.03;;;;;;;7.46;78.74;100604.00;5023385;28;20080;-65
2022/02/04 13:13:10;;;;;;;1.90;0.52;;;;;;;6.94;74.70;100557.19;5027418;28;20137;-65
2022/02/04 13:15:37;;;;;;;6.63;1.10;;;;;;;6.01;76.86;100576.53;5027667;28;20108;-64
2022/02/04 13:18:07;;;;;;;7.80;1.52;;;;;;;5.41;79.52;100578.44;5027693;28;20037;-64
2022/02/04 13:20:33;;;;;;;4.22;0.77;;;;;;;5.09;80.33;100566.78;5009806;28;20516;-65
2022/02/04 13:23:04;;;;;;;9.88;1.67;;;;;;;4.90;80.79;100590.53;5027956;28;20033;-64
2022/02/04 13:25:32;;;;;;;3.05;0.82;;;;;;;4.77;81.62;100595.94;5028282;28;20025;-63
2022/02/04 13:28:22;;;;;;;2.00;0.40;;;;;;;4.75;81.87;100579.44;5007802;28;20472;-64
2022/02/04 13:30:58;;;;;;;1.55;0.60;;;;;;;4.66;81.60;100595.22;5016478;28;20041;-63
2022/02/04 13:33:24;;;;;;;6.78;0.63;;;;;;;4.65;81.71;100602.19;5029795;28;20799;-63
2022/02/04 13:35:56;;;;;;;7.38;0.88;;;;;;;4.69;81.27;100608.22;5027406;28;20096;-65
2022/02/04 13:38:29;;;;;;;7.00;0.73;;;;;;;4.57;81.92;100605.81;5027605;28;20033;-64
2022/02/04 13:41:09;;;;;;;2.83;0.80;;;;;;;4.43;81.08;100604.22;5027214;28;20032;-63
2022/02/04 13:46:33;;;;;;;3.80;0.55;;;;;;;4.30;80.98;100627.84;5029688;28;20095;-65
2022/02/04 13:49:19;;;;;;;1.20;0.55;;;;;;;4.30;80.20;100619.13;5026246;28;20265;-65
2022/02/04 13:56:55;;;;;;;1.48;0.32;;;;;;;4.34;80.75;100651.28;5026802;28;20077;-62
2022/02/04 13:59:38;;;;;;;0.55;0.32;;;;;;;4.26;79.41;100662.66;5008242;28;20425;-63
2022/02/04 14:02:20;;;;;;;1.08;0.30;;;;;;;4.00;80.32;100653.34;5037561;28;20032;-65
2022/02/04 14:05:01;;;;;;;3.13;0.50;;;;;;;4.03;80.30;100655.94;5044966;28;20056;-63
2022/02/04 14:07:39;;;;;;;1.02;0.38;;;;;;;3.99;80.76;100674.22;5026469;28;20053;-64
2022/02/04 14:10:34;;;;;;;2.35;0.50;;;;;;;4.10;81.04;100682.81;5025562;28;20045;-64
2022/02/04 14:13:02;;;;;;;1.15;0.50;;;;;;;4.18;80.88;100685.34;5028612;28;20025;-64
2022/02/04 14:15:29;;;;;;;4.18;0.35;;;;;;;4.19;80.41;100681.88;5045175;28;20028;-62
2022/02/04 14:17:56;;;;;;;2.08;0.50;;;;;;;4.15;80.70;100691.44;5010635;28;20045;-65
2022/02/04 14:20:21;;;;;;;0.68;0.22;;;;;;;4.33;80.69;100686.94;5006850;28;20105;-63
2022/02/04 14:22:47;;;;;;;0.95;0.50;;;;;;;4.42;80.78;100688.56;5024571;28;20120;-62
2022/02/04 14:25:13;;;;;;;3.00;0.60;;;;;;;4.59;80.59;100700.56;5014416;28;20030;-63
2022/02/04 14:27:38;;;;;;;5.15;0.45;;;;;;;4.61;80.26;100698.81;5024833;28;20297;-64
2022/02/04 14:30:13;;;;;;;0.30;0.30;;;;;;;4.62;79.69;100718.81;5036501;28;20119;-62
2022/02/04 14:32:49;;;;;;;4.18;0.40;;;;;;;4.73;79.59;100722.16;5029672;28;20036;-63
2022/02/04 14:35:33;;;;;;;2.63;0.50;;;;;;;4.67;79.62;100719.63;5045217;28;20136;-63
2022/02/04 14:51:47;;;;;;;0.85;0.32;;;;;;;4.65;79.94;100778.81;5026942;28;20124;-62
2022/02/04 14:54:33;;;;;;;3.97;0.55;;;;;;;4.50;80.05;100796.34;5007022;28;20025;-63
2022/02/04 15:02:41;;;;;;;2.25;0.50;;;;;;;4.38;79.69;100812.13;5004598;28;20037;-67
2022/02/04 15:05:11;;;;;;;5.95;1.65;;;;;;;4.38;79.76;100822.53;5024483;28;20034;-62
2022/02/04 15:07:39;;;;;;;1.63;0.50;;;;;;;4.34;79.55;100839.13;5025029;28;20381;-62
2022/02/04 15:10:05;;;;;;;3.15;0.63;;;;;;;4.35;79.79;100833.88;5024373;28;20590;-61
2022/02/04 15:12:31;;;;;;;1.27;0.38;;;;;;;4.34;80.40;100858.25;5023999;28;20025;-62
2022/02/04 15:14:56;;;;;;;3.63;0.52;;;;;;;4.35;80.22;100846.06;5013913;28;20385;-62
2022/02/04 15:17:21;;;;;;;2.40;0.68;;;;;;;4.46;79.80;100859.03;5013943;28;20037;-63
2022/02/04 15:19:49;;;;;;;2.75;0.45;;;;;;;4.51;79.88;100857.22;5012229;28;20029;-63
2022/02/04 15:22:16;;;;;;;1.73;0.47;;;;;;;4.50;79.71;100874.66;5004540;28;20468;-61
2022/02/04 15:24:41;;;;;;;1.08;0.50;;;;;;;4.32;78.93;100887.81;5011759;28;20021;-63
2022/02/04 15:27:06;;;;;;;11.93;0.73;;;;;;;4.30;79.43;100890.44;5044616;28;20445;-62
2022/02/04 15:29:35;;;;;;;3.90;0.57;;;;;;;4.02;79.98;100914.09;5041816;28;20036;-60
2022/02/04 15:32:02;;;;;;;5.15;0.98;;;;;;;3.98;80.47;100934.09;5020741;28;20026;-61
2022/02/04 15:34:27;;;;;;;6.95;0.63;;;;;;;3.92;80.29;100924.53;5023900;28;20488;-63
2022/02/04 15:36:53;;;;;;;10.60;1.23;;;;;;;4.00;80.35;100906.25;5007310;28;20041;-61
2022/02/04 15:39:20;;;;;;;5.00;0.80;;;;;;;4.16;80.29;100916.63;5024428;28;20029;-62
2022/02/04 15:41:49;;;;;;;2.38;0.60;;;;;;;4.13;79.24;100927.06;5022573;28;20140;-62
2022/02/04 15:54:40;;;;;;;2.45;0.52;;;;;;;4.60;78.20;100939.81;5045139;28;20036;-59
2022/02/04 16:00:09;;;;;;;11.30;1.23;;;;;;;4.52;79.50;100955.53;5014461;28;20056;-60
2022/02/04 16:02:47;;;;;;;6.45;0.88;;;;;;;4.55;78.84;100969.41;5004519;28;20045;-61
2022/02/04 16:05:13;;;;;;;9.07;1.50;;;;;;;4.51;79.13;100965.09;5016547;28;20022;-60
2022/02/04 16:07:40;;;;;;;5.75;1.00;;;;;;;4.52;78.73;100992.91;5007884;28;20458;-61
2022/02/04 16:12:56;;;;;;;7.57;1.25;;;;;;;4.03;77.21;101052.28;5015444;28;20503;-58
2022/02/04 16:15:45;;;;;;;5.13;1.88;;;;;;;3.68;78.05;101035.00;5004320;28;20021;-63
2022/02/04 16:18:17;;;;;;;;;;;;;;;3.42;78.76;101033.28;5008536;28;20069;-54
2022/02/04 16:23:28;;;;;;;10.25;1.42;;;;;;;3.43;78.88;101029.81;5024694;28;20033;-61
2022/02/04 16:26:22;;;;;;;;;;;;;;;3.37;79.23;101029.84;5024576;28;20025;-60
2022/02/04 16:28:44;;;;;;;;;;;;;;;3.29;79.45;101048.06;5025112;28;19951;-59
2022/02/04 16:31:13;;;;;;;;;;;;;;;3.25;79.44;101062.81;5006450;28;19913;-60
2022/02/04 16:33:38;;;;;;;;;;;;;;;3.36;80.07;101064.56;5024590;28;19909;-67
2022/02/04 16:36:08;;;;;;;;;;;;;;;3.46;79.77;101076.72;5027258;28;19921;-61
2022/02/04 16:38:33;;;;;;;;;;;;;;;3.55;79.75;101075.81;5027617;28;19975;-65
2022/02/04 16:41:05;;;;;;;;;;;;;;;3.65;79.84;101063.69;5028180;28;19965;-65
2022/02/04 16:43:30;;;;;;;;;;;;;;;3.75;79.33;101075.81;5027110;28;19912;-65
2022/02/04 16:45:55;;;;;;;;;;;;;;;3.75;79.05;101083.63;5020501;28;19917;-64
2022/02/04 16:48:21;;;;;;;;;;;;;;;3.80;78.90;101086.25;5013477;28;19917;-62
2022/02/04 16:50:46;;;;;;;;;;;;;;;3.72;78.83;101086.25;5011003;28;19955;-64
2022/02/04 16:53:11;;;;;;;;;;;;;;;3.86;78.01;101107.09;5006880;28;19924;-64
2022/02/04 16:55:37;;;;;;;;;;;;;;;3.90;77.68;101102.72;5007982;28;20290;-64
2022/02/04 16:58:02;;;;;;;;;;;;;;;3.94;77.04;101101.84;5014598;28;19916;-61
2022/02/04 17:00:27;;;;;;;;;;;;;;;4.02;76.62;101118.34;5031038;28;19920;-62
2022/02/04 17:02:54;;;;;;;;;;;;;;;4.12;75.86;101106.16;5029116;28;19913;-62
2022/02/04 17:05:22;;;;;;;;;;;;;;;4.21;75.70;101120.06;5029246;28;19920;-61
2022/02/04 17:07:56;;;;;;;;;;;;;;;4.32;75.24;101105.22;5010715;28;19917;-62
2022/02/04 17:10:28;;;;;;;;;;;;;;;4.34;74.90;101115.66;5028837;28;19959;-63
2022/02/04 17:12:59;;;;;;;;;;;;;;;4.46;75.01;101123.44;5028536;28;20007;-61
2022/02/04 17:15:32;;;;;;;;;;;;;;;4.38;74.88;101151.28;5027732;28;19913;-63
2022/02/04 17:17:57;;;;;;;;;;;;;;;4.48;74.92;101137.34;5028596;28;20032;-63
2022/02/04 17:20:23;;;;;;;;;;;;;;;4.47;75.20;101137.34;5027746;28;19944;-63
2022/02/04 17:22:48;;;;;;;;;;;;;;;4.53;75.04;101134.72;5026915;28;19917;-61
2022/02/04 17:25:13;;;;;;;;;;;;;;;4.58;74.85;101147.75;5030958;28;19921;-60
2022/02/04 17:27:40;;;;;;;;;;;;;;;4.64;74.45;101140.75;5028177;28;19916;-60
2022/02/04 17:30:06;;;;;;;;;;;;;;;4.80;74.22;101149.41;5026755;28;19913;-64
2022/02/04 17:32:31;;;;;;;;;;;;;;;4.91;74.31;101158.94;5029996;28;19913;-59
2022/02/04 17:34:57;;;;;;;;;;;;;;;4.90;74.17;101157.16;5028155;28;20287;-57
2022/02/04 17:37:23;;;;;;;;;;;;;;;4.98;73.81;101158.00;5027932;28;19913;-59
2022/02/04 17:39:51;;;;;;;;;;;;;;;5.07;73.42;101164.94;5028043;28;20368;-60
2022/02/04 17:42:22;;;;;;;;;;;;;;;5.04;73.73;101186.72;5028873;28;20291;-60
2022/02/04 17:44:47;;;;;;;;;;;;;;;5.12;73.80;101186.66;5026640;28;19913;-60
2022/02/04 17:47:13;;;;;;;;;;;;;;;5.13;73.55;101193.63;5028041;28;20375;-59
2022/02/04 17:49:48;;;;;;;;;;;;;;;5.17;73.52;101194.47;5027868;28;19956;-59
2022/02/04 17:52:24;;;;;;;;;;;;;;;5.13;73.13;101200.59;5025102;28;19927;-60
2022/02/04 17:54:58;;;;;;;;;;;;;;;5.17;73.43;101197.97;5036720;28;19909;-60
2022/02/04 17:57:40;;;;;;;;;;;;;;;5.20;73.21;101207.53;5027361;28;19967;-60
2022/02/04 18:00:42;;;;;;;;;;;;;;;5.21;73.36;101195.34;5045728;28;19913;-59
2022/02/04 18:08:22;;;;;;;;;;;;;;;5.40;73.19;101199.56;5011954;28;19917;-61
2022/02/04 18:10:47;;;;;;;;;;;;;;;5.49;73.26;101201.25;5027406;28;19913;-60
2022/02/04 18:13:13;;;;;;;;;;;;;;;5.46;73.42;101216.06;5040177;28;19901;-59
2022/02/04 18:15:42;;;;;;;;;;;;;;;5.57;72.89;101212.50;5045723;28;19966;-59
2022/02/04 18:18:08;;;;;;;;;;;;;;;5.59;72.93;101217.72;5046588;28;19913;-59
2022/02/04 18:20:33;;;;;;;;;;;;;;;5.52;72.31;101230.00;5046626;28;20425;-62
2022/02/04 18:22:58;;;;;;;;;;;;;;;5.60;72.53;101234.31;5045868;28;19951;-61